createdAt,value
2023-01-13T00:00:16.130Z,100859.81
2023-01-13T00:00:50.423Z,100858.94
2023-01-13T00:01:25.562Z,100861.53
2023-01-13T00:01:57.437Z,100864.09
2023-01-13T00:02:30.108Z,100864.09
2023-01-13T00:03:01.911Z,100870.91
2023-01-13T00:03:33.551Z,100860.63
2023-01-13T00:04:05.279Z,100869.16
2023-01-13T00:04:36.911Z,100862.31
2023-01-13T00:05:09.811Z,100860.63
2023-01-13T00:05:41.732Z,100860.66
2023-01-13T00:06:16.665Z,100860.66
2023-01-13T00:06:48.293Z,100864.09
2023-01-13T00:07:19.990Z,100859.81
2023-01-13T00:07:51.649Z,100863.25
2023-01-13T00:08:23.307Z,100858.94
2023-01-13T00:08:55.508Z,100866.66
2023-01-13T00:09:27.126Z,100864.97
2023-01-13T00:09:58.743Z,100859.81
2023-01-13T00:10:30.599Z,100861.53
2023-01-13T00:11:02.311Z,100862.38
2023-01-13T00:11:34.114Z,100856.38
2023-01-13T00:12:06.614Z,100858.88
2023-01-13T00:12:41.946Z,100852.03
2023-01-13T00:13:13.719Z,100856.28
2023-01-13T00:13:45.638Z,100864.88
2023-01-13T00:14:18.173Z,100859.75
2023-01-13T00:14:49.827Z,100860.66
2023-01-13T00:15:21.720Z,100864.03
2023-01-13T00:16:10.080Z,100853.75
2023-01-13T00:16:41.744Z,100856.38
2023-01-13T00:17:13.403Z,100858.06
2023-01-13T00:17:45.015Z,100854.66
2023-01-13T00:18:16.651Z,100854.66
2023-01-13T00:18:51.172Z,100852.97
2023-01-13T00:19:23.384Z,100855.50
2023-01-13T00:19:55.044Z,100857.22
2023-01-13T00:20:26.979Z,100855.53
2023-01-13T00:21:07.335Z,100855.50
2023-01-13T00:21:39.199Z,100847.78
2023-01-13T00:22:10.842Z,100850.34
2023-01-13T00:22:42.485Z,100858.06
2023-01-13T00:23:14.115Z,100852.09
2023-01-13T00:23:46.741Z,100854.63
2023-01-13T00:24:18.387Z,100853.81
2023-01-13T00:24:50.076Z,100858.06
2023-01-13T00:25:21.720Z,100857.22
2023-01-13T00:26:02.197Z,100857.22
2023-01-13T00:26:35.918Z,100851.19
2023-01-13T00:27:07.939Z,100849.50
2023-01-13T00:27:39.721Z,100853.75
2023-01-13T00:28:11.493Z,100852.88
2023-01-13T00:28:43.409Z,100851.19
2023-01-13T00:29:15.534Z,100853.75
2023-01-13T00:29:47.249Z,100853.75
2023-01-13T00:30:19.575Z,100852.03
2023-01-13T00:30:51.546Z,100855.47
2023-01-13T00:31:23.372Z,100849.50
2023-01-13T00:31:55.604Z,100851.16
2023-01-13T00:32:28.324Z,100852.00
2023-01-13T00:33:00.426Z,100851.16
2023-01-13T00:33:32.103Z,100847.72
2023-01-13T00:34:04.563Z,100847.72
2023-01-13T00:34:36.341Z,100853.75
2023-01-13T00:35:08.520Z,100855.44
2023-01-13T00:35:40.448Z,100851.13
2023-01-13T00:36:14.164Z,100855.41
2023-01-13T00:36:45.863Z,100853.66
2023-01-13T00:37:17.809Z,100850.28
2023-01-13T00:37:49.650Z,100844.31
2023-01-13T00:38:21.292Z,100846.00
2023-01-13T00:38:52.929Z,100846.84
2023-01-13T00:39:24.663Z,100846.88
2023-01-13T00:39:57.860Z,100857.16
2023-01-13T00:40:29.518Z,100852.84
2023-01-13T00:41:06.166Z,100842.59
2023-01-13T00:41:56.457Z,100843.44
2023-01-13T00:42:47.046Z,100846.88
2023-01-13T00:43:24.791Z,100851.16
2023-01-13T00:43:56.442Z,100850.28
2023-01-13T00:44:28.099Z,100852.06
2023-01-13T00:44:59.798Z,100849.47
2023-01-13T00:45:31.413Z,100846.88
2023-01-13T00:46:04.748Z,100851.16
2023-01-13T00:46:36.903Z,100850.28
2023-01-13T00:47:08.584Z,100856.31
2023-01-13T00:47:40.215Z,100855.47
2023-01-13T00:48:11.867Z,100848.59
2023-01-13T00:48:43.891Z,100851.16
2023-01-13T00:49:15.597Z,100853.72
2023-01-13T00:49:47.238Z,100851.06
2023-01-13T00:50:19.058Z,100858.88
2023-01-13T00:51:01.142Z,100853.69
2023-01-13T00:51:32.827Z,100848.56
2023-01-13T00:52:04.566Z,100850.22
2023-01-13T00:52:36.620Z,100852.78
2023-01-13T00:53:08.358Z,100850.22
2023-01-13T00:53:43.279Z,100848.47
2023-01-13T00:54:14.919Z,100850.22
2023-01-13T00:54:46.571Z,100849.34
2023-01-13T00:55:18.543Z,100856.19
2023-01-13T00:55:50.241Z,100850.16
2023-01-13T00:56:39.211Z,100846.69
2023-01-13T00:57:12.283Z,100847.53
2023-01-13T00:57:43.936Z,100846.66
2023-01-13T00:58:15.597Z,100839.81
2023-01-13T00:58:48.154Z,100842.34
2023-01-13T00:59:19.814Z,100850.03
2023-01-13T00:59:51.455Z,100842.31
2023-01-13T01:00:25.855Z,100838.81
2023-01-13T01:01:06.339Z,100844.81
2023-01-13T01:01:38.493Z,100844.81
2023-01-13T01:02:11.092Z,100840.50
2023-01-13T01:02:42.960Z,100838.78
2023-01-13T01:03:14.639Z,100841.38
2023-01-13T01:03:53.405Z,100838.81
2023-01-13T01:04:25.109Z,100837.94
2023-01-13T01:04:56.815Z,100837.94
2023-01-13T01:05:28.482Z,100834.50
2023-01-13T01:06:12.012Z,100837.94
2023-01-13T01:06:43.797Z,100838.75
2023-01-13T01:07:15.430Z,100839.56
2023-01-13T01:07:47.057Z,100834.41
2023-01-13T01:08:18.679Z,100840.41
2023-01-13T01:08:51.663Z,100835.25
2023-01-13T01:09:23.317Z,100834.41
2023-01-13T01:09:54.953Z,100840.38
2023-01-13T01:10:26.612Z,100836.94
2023-01-13T01:11:05.444Z,100833.53
2023-01-13T01:11:37.913Z,100830.97
2023-01-13T01:12:09.727Z,100829.28
2023-01-13T01:12:41.404Z,100832.69
2023-01-13T01:13:17.162Z,100831.84
2023-01-13T01:13:53.015Z,100832.69
2023-01-13T01:14:24.767Z,100838.69
2023-01-13T01:14:56.384Z,100835.31
2023-01-13T01:15:28.016Z,100832.72
2023-01-13T01:16:00.309Z,100836.09
2023-01-13T01:16:33.642Z,100833.53
2023-01-13T01:17:05.366Z,100830.97
2023-01-13T01:17:37.440Z,100827.56
2023-01-13T01:18:09.202Z,100834.41
2023-01-13T01:18:44.316Z,100834.41
2023-01-13T01:19:16.475Z,100827.53
2023-01-13T01:19:48.108Z,100826.69
2023-01-13T01:20:19.772Z,100827.56
2023-01-13T01:20:51.745Z,100827.59
2023-01-13T01:21:25.501Z,100823.25
2023-01-13T01:21:57.122Z,100820.66
2023-01-13T01:22:28.947Z,100823.22
2023-01-13T01:23:01.079Z,100823.25
2023-01-13T01:23:34.162Z,100815.50
2023-01-13T01:24:06.180Z,100823.25
2023-01-13T01:24:37.841Z,100818.09
2023-01-13T01:25:09.720Z,100818.09
2023-01-13T01:25:41.341Z,100824.13
2023-01-13T01:26:16.196Z,100819.00
2023-01-13T01:26:47.855Z,100824.16
2023-01-13T01:27:19.490Z,100826.75
2023-01-13T01:27:51.151Z,100814.75
2023-01-13T01:28:22.878Z,100830.16
2023-01-13T01:28:55.491Z,100822.47
2023-01-13T01:29:27.328Z,100817.28
2023-01-13T01:29:58.953Z,100824.16
2023-01-13T01:30:30.679Z,100814.72
2023-01-13T01:31:15.200Z,100820.78
2023-01-13T01:31:46.961Z,100822.44
2023-01-13T01:32:18.638Z,100814.72
2023-01-13T01:32:50.338Z,100807.88
2023-01-13T01:33:22.434Z,100813.91
2023-01-13T01:33:55.170Z,100809.56
2023-01-13T01:34:26.849Z,100811.31
2023-01-13T01:34:58.474Z,100813.03
2023-01-13T01:35:30.085Z,100810.44
2023-01-13T01:36:03.184Z,100813.03
2023-01-13T01:36:36.305Z,100807.91
2023-01-13T01:37:07.935Z,100802.75
2023-01-13T01:37:39.573Z,100806.19
2023-01-13T01:38:11.202Z,100798.47
2023-01-13T01:38:43.551Z,100797.63
2023-01-13T01:39:15.161Z,100801.88
2023-01-13T01:39:46.791Z,100803.59
2023-01-13T01:40:18.442Z,100798.47
2023-01-13T01:40:50.140Z,100803.59
2023-01-13T01:41:24.354Z,100802.75
2023-01-13T01:42:14.366Z,100802.75
2023-01-13T01:43:04.891Z,100797.59
2023-01-13T01:44:02.972Z,100800.16
2023-01-13T01:44:53.406Z,100803.59
2023-01-13T01:45:26.902Z,100806.97
2023-01-13T01:45:58.527Z,100800.13
2023-01-13T01:46:36.638Z,100805.28
2023-01-13T01:47:17.649Z,100796.75
2023-01-13T01:47:57.219Z,100801.84
2023-01-13T01:48:34.827Z,100801.03
2023-01-13T01:49:21.355Z,100798.47
2023-01-13T01:49:53.405Z,100801.00
2023-01-13T01:50:27.131Z,100801.84
2023-01-13T01:50:59.130Z,100798.44
2023-01-13T01:51:36.954Z,100798.44
2023-01-13T01:52:14.746Z,100799.28
2023-01-13T01:52:54.066Z,100801.81
2023-01-13T01:53:29.767Z,100792.38
2023-01-13T01:54:06.308Z,100793.31
2023-01-13T01:54:37.886Z,100790.72
2023-01-13T01:55:15.465Z,100794.13
2023-01-13T01:55:47.317Z,100798.44
2023-01-13T01:56:20.053Z,100796.69
2023-01-13T01:56:53.058Z,100789.78
2023-01-13T01:57:36.993Z,100791.47
2023-01-13T01:58:17.402Z,100793.22
2023-01-13T01:58:52.330Z,100796.66
2023-01-13T01:59:27.548Z,100793.25
2023-01-13T02:00:01.079Z,100798.38
2023-01-13T02:00:32.825Z,100797.56
2023-01-13T02:01:04.683Z,100794.97
2023-01-13T02:01:38.766Z,100794.03
2023-01-13T02:02:10.967Z,100790.56
2023-01-13T02:02:47.279Z,100787.09
2023-01-13T02:03:19.884Z,100792.25
2023-01-13T02:03:59.505Z,100786.31
2023-01-13T02:04:36.158Z,100790.59
2023-01-13T02:05:08.419Z,100791.41
2023-01-13T02:05:40.199Z,100790.53
2023-01-13T02:06:13.424Z,100787.09
2023-01-13T02:06:47.703Z,100792.19
2023-01-13T02:07:26.331Z,100782.72
2023-01-13T02:08:00.319Z,100787.00
2023-01-13T02:08:33.016Z,100787.84
2023-01-13T02:09:05.363Z,100786.16
2023-01-13T02:09:37.081Z,100785.25
2023-01-13T02:10:14.054Z,100787.88
2023-01-13T02:10:53.272Z,100782.69
2023-01-13T02:11:54.698Z,100788.72
2023-01-13T02:12:34.517Z,100784.38
2023-01-13T02:13:12.241Z,100786.16
2023-01-13T02:13:43.909Z,100787.84
2023-01-13T02:14:16.370Z,100788.75
2023-01-13T02:14:48.125Z,100795.56
2023-01-13T02:15:41.762Z,100784.38
2023-01-13T02:16:22.039Z,100789.47
2023-01-13T02:17:49.973Z,100779.97
2023-01-13T02:18:39.469Z,100778.19
2023-01-13T02:19:54.537Z,100785.94
2023-01-13T02:20:41.049Z,100787.63
2023-01-13T02:21:42.902Z,100784.06
2023-01-13T02:22:45.163Z,100781.47
2023-01-13T02:23:54.232Z,100780.66
2023-01-13T02:24:55.369Z,100776.28
2023-01-13T02:25:30.057Z,100777.09
2023-01-13T02:26:10.869Z,100780.56
2023-01-13T02:27:14.181Z,100774.53
2023-01-13T02:27:51.457Z,100780.53
2023-01-13T02:29:15.454Z,100772.78
2023-01-13T02:30:46.416Z,100774.44
2023-01-13T02:31:37.243Z,100776.09
2023-01-13T02:32:29.059Z,100770.06
2023-01-13T02:33:25.236Z,100777.72
2023-01-13T02:34:09.687Z,100778.59
2023-01-13T02:34:55.703Z,100777.72
2023-01-13T02:35:33.144Z,100768.31
2023-01-13T02:36:20.933Z,100771.75
2023-01-13T02:37:01.416Z,100773.41
2023-01-13T02:37:38.909Z,100781.13
2023-01-13T02:38:15.488Z,100778.53
2023-01-13T02:39:00.913Z,100779.44
2023-01-13T02:39:59.782Z,100782.00
2023-01-13T02:40:47.019Z,100784.59
2023-01-13T02:41:50.094Z,100782.06
2023-01-13T02:43:10.774Z,100780.38
2023-01-13T02:44:01.761Z,100782.84
2023-01-13T02:44:42.572Z,100780.31
2023-01-13T02:45:41.510Z,100773.53
2023-01-13T02:46:25.508Z,100776.03
2023-01-13T02:47:15.286Z,100776.91
2023-01-13T02:47:50.722Z,100775.22
2023-01-13T02:48:24.552Z,100769.22
2023-01-13T02:49:03.126Z,100772.63
2023-01-13T02:49:40.407Z,100766.59
2023-01-13T02:50:20.990Z,100770.00
2023-01-13T02:51:08.346Z,100764.03
2023-01-13T02:51:42.200Z,100765.66
2023-01-13T02:52:45.558Z,100761.41
2023-01-13T02:53:30.742Z,100765.59
2023-01-13T02:54:13.692Z,100766.41
2023-01-13T02:54:52.882Z,100760.38
2023-01-13T02:55:34.877Z,100755.25
2023-01-13T02:56:10.178Z,100760.41
2023-01-13T02:56:47.283Z,100762.09
2023-01-13T02:57:21.693Z,100757.88
2023-01-13T02:57:55.603Z,100760.44
2023-01-13T02:58:31.848Z,100760.41
2023-01-13T02:59:05.437Z,100767.28
2023-01-13T02:59:40.243Z,100759.56
2023-01-13T03:00:15.531Z,100764.69
2023-01-13T03:00:49.380Z,100758.72
2023-01-13T03:01:21.335Z,100758.75
2023-01-13T03:01:57.109Z,100758.78
2023-01-13T03:02:29.132Z,100763.88
2023-01-13T03:03:01.608Z,100757.91
2023-01-13T03:03:33.305Z,100764.75
2023-01-13T03:04:15.364Z,100753.56
2023-01-13T03:04:51.483Z,100765.59
2023-01-13T03:05:23.261Z,100751.91
2023-01-13T03:06:10.789Z,100751.06
2023-01-13T03:07:13.059Z,100749.31
2023-01-13T03:08:03.025Z,100752.75
2023-01-13T03:08:52.103Z,100747.63
2023-01-13T03:09:34.420Z,100751.94
2023-01-13T03:10:17.756Z,100745.91
2023-01-13T03:11:12.879Z,100742.47
2023-01-13T03:11:56.275Z,100743.34
2023-01-13T03:12:55.352Z,100744.28
2023-01-13T03:13:39.272Z,100739.91
2023-01-13T03:14:46.172Z,100747.63
2023-01-13T03:15:30.143Z,100742.47
2023-01-13T03:16:17.049Z,100748.53
2023-01-13T03:17:16.388Z,100747.69
2023-01-13T03:18:03.002Z,100750.31
2023-01-13T03:18:52.816Z,100744.34
2023-01-13T03:20:01.396Z,100739.25
2023-01-13T03:20:41.224Z,100736.66
2023-01-13T03:21:23.094Z,100744.34
2023-01-13T03:22:12.235Z,100734.09
2023-01-13T03:23:05.192Z,100740.13
2023-01-13T03:23:42.426Z,100741.84
2023-01-13T03:24:28.413Z,100735.78
2023-01-13T03:25:10.619Z,100744.34
2023-01-13T03:25:56.323Z,100744.34
2023-01-13T03:26:44.112Z,100742.69
2023-01-13T03:27:35.626Z,100738.44
2023-01-13T03:28:16.239Z,100741.88
2023-01-13T03:29:01.015Z,100738.41
2023-01-13T03:29:39.394Z,100741.00
2023-01-13T03:30:22.179Z,100741.91
2023-01-13T03:31:02.744Z,100741.00
2023-01-13T03:31:44.177Z,100733.28
2023-01-13T03:32:25.611Z,100734.09
2023-01-13T03:33:04.919Z,100736.69
2023-01-13T03:33:45.788Z,100740.16
2023-01-13T03:34:22.822Z,100733.25
2023-01-13T03:34:58.631Z,100735.81
2023-01-13T03:35:38.150Z,100736.66
2023-01-13T03:36:13.798Z,100732.41
2023-01-13T03:36:51.731Z,100735.88
2023-01-13T03:37:30.941Z,100737.59
2023-01-13T03:38:16.088Z,100736.72
2023-01-13T03:38:54.799Z,100732.44
2023-01-13T03:39:33.370Z,100733.25
2023-01-13T03:40:37.497Z,100736.69
2023-01-13T03:41:17.303Z,100727.25
2023-01-13T03:41:59.929Z,100726.38
2023-01-13T03:42:37.693Z,100730.66
2023-01-13T03:43:34.581Z,100735.78
2023-01-13T03:44:24.436Z,100729.75
2023-01-13T03:45:05.288Z,100733.16
2023-01-13T03:45:41.203Z,100723.75
2023-01-13T03:46:24.360Z,100730.63
2023-01-13T03:47:05.209Z,100727.22
2023-01-13T03:47:41.482Z,100726.41
2023-01-13T03:48:19.707Z,100733.28
2023-01-13T03:48:58.059Z,100727.25
2023-01-13T03:49:39.715Z,100734.16
2023-01-13T03:50:22.795Z,100735.88
2023-01-13T03:51:03.474Z,100729.88
2023-01-13T03:51:39.672Z,100735.88
2023-01-13T03:52:19.305Z,100735.00
2023-01-13T03:52:58.221Z,100734.91
2023-01-13T03:53:39.470Z,100736.63
2023-01-13T03:54:15.782Z,100728.03
2023-01-13T03:55:00.483Z,100731.41
2023-01-13T03:55:36.623Z,100734.00
2023-01-13T03:56:21.305Z,100737.38
2023-01-13T03:57:00.251Z,100733.94
2023-01-13T03:57:38.714Z,100731.34
2023-01-13T03:58:33.915Z,100728.69
2023-01-13T03:59:11.764Z,100742.38
2023-01-13T03:59:51.141Z,100733.78
2023-01-13T04:00:27.905Z,100736.34
2023-01-13T04:01:05.484Z,100732.03
2023-01-13T04:02:09.214Z,100737.19
2023-01-13T04:03:01.937Z,100739.72
2023-01-13T04:03:46.566Z,100737.19
2023-01-13T04:04:46.982Z,100739.75
2023-01-13T04:05:19.015Z,100737.16
2023-01-13T04:05:58.450Z,100742.28
2023-01-13T04:06:47.518Z,100743.13
2023-01-13T04:07:46.848Z,100741.44
2023-01-13T04:08:25.927Z,100743.97
2023-01-13T04:09:45.737Z,100735.38
2023-01-13T04:10:26.900Z,100741.38
2023-01-13T04:11:06.761Z,100738.78
2023-01-13T04:11:45.514Z,100740.47
2023-01-13T04:12:52.210Z,100737.06
2023-01-13T04:13:30.636Z,100736.19
2023-01-13T04:14:06.159Z,100739.56
2023-01-13T04:14:38.981Z,100730.97
2023-01-13T04:15:12.811Z,100735.22
2023-01-13T04:15:46.680Z,100730.97
2023-01-13T04:16:18.481Z,100735.22
2023-01-13T04:16:50.511Z,100738.66
2023-01-13T04:17:24.626Z,100738.66
2023-01-13T04:18:09.023Z,100735.22
2023-01-13T04:18:40.872Z,100736.06
2023-01-13T04:19:12.945Z,100737.75
2023-01-13T04:19:44.918Z,100732.63
2023-01-13T04:20:17.204Z,100738.56
2023-01-13T04:20:52.519Z,100740.31
2023-01-13T04:21:24.278Z,100736.06
2023-01-13T04:21:55.962Z,100736.06
2023-01-13T04:22:28.004Z,100739.47
2023-01-13T04:22:59.789Z,100737.69
2023-01-13T04:23:32.695Z,100741.94
2023-01-13T04:24:04.750Z,100734.16
2023-01-13T04:24:37.225Z,100732.50
2023-01-13T04:25:10.409Z,100739.34
2023-01-13T04:25:43.822Z,100737.63
2023-01-13T04:26:15.593Z,100737.59
2023-01-13T04:26:47.494Z,100735.94
2023-01-13T04:27:19.133Z,100730.78
2023-01-13T04:27:50.814Z,100741.94
2023-01-13T04:28:23.680Z,100743.66
2023-01-13T04:28:55.495Z,100736.81
2023-01-13T04:29:27.190Z,100735.09
2023-01-13T04:29:58.859Z,100728.19
2023-01-13T04:30:30.557Z,100736.78
2023-01-13T04:31:02.313Z,100738.50
2023-01-13T04:31:33.972Z,100747.06
2023-01-13T04:32:05.774Z,100743.63
2023-01-13T04:32:37.440Z,100741.91
2023-01-13T04:33:10.155Z,100746.19
2023-01-13T04:33:41.809Z,100738.44
2023-01-13T04:34:13.531Z,100747.81
2023-01-13T04:34:45.164Z,100741.81
2023-01-13T04:35:16.837Z,100748.66
2023-01-13T04:35:48.850Z,100750.41
2023-01-13T04:36:25.109Z,100746.09
2023-01-13T04:36:56.891Z,100746.97
2023-01-13T04:37:28.550Z,100748.66
2023-01-13T04:38:05.083Z,100742.63
2023-01-13T04:38:36.781Z,100754.63
2023-01-13T04:39:08.461Z,100751.22
2023-01-13T04:39:40.100Z,100750.38
2023-01-13T04:40:12.036Z,100752.06
2023-01-13T04:40:44.216Z,100745.22
2023-01-13T04:41:15.893Z,100746.94
2023-01-13T04:41:59.781Z,100746.97
2023-01-13T04:42:31.458Z,100744.41
2023-01-13T04:43:03.209Z,100741.81
2023-01-13T04:43:34.860Z,100742.69
2023-01-13T04:44:06.548Z,100744.41
2023-01-13T04:44:38.182Z,100746.94
2023-01-13T04:45:10.292Z,100742.63
2023-01-13T04:45:44.324Z,100739.25
2023-01-13T04:46:16.025Z,100741.81
2023-01-13T04:46:47.672Z,100743.59
2023-01-13T04:47:19.396Z,100741.00
2023-01-13T04:47:51.678Z,100746.97
2023-01-13T04:48:23.305Z,100744.41
2023-01-13T04:48:54.940Z,100744.44
2023-01-13T04:49:26.744Z,100745.31
2023-01-13T04:49:58.385Z,100741.06
2023-01-13T04:50:30.082Z,100742.78
2023-01-13T04:51:01.758Z,100743.63
2023-01-13T04:51:33.384Z,100744.47
2023-01-13T04:52:07.054Z,100741.91
2023-01-13T04:52:39.348Z,100740.19
2023-01-13T04:53:11.626Z,100739.34
2023-01-13T04:53:43.291Z,100741.06
2023-01-13T04:54:14.942Z,100744.50
2023-01-13T04:54:46.588Z,100740.19
2023-01-13T04:55:19.788Z,100740.19
2023-01-13T04:55:52.188Z,100742.81
2023-01-13T04:56:23.827Z,100742.84
2023-01-13T04:56:55.501Z,100735.13
2023-01-13T04:57:27.347Z,100736.78
2023-01-13T04:58:06.160Z,100732.53
2023-01-13T04:58:37.813Z,100736.84
2023-01-13T04:59:11.244Z,100732.56
2023-01-13T04:59:42.915Z,100741.97
2023-01-13T05:00:17.727Z,100740.28
2023-01-13T05:00:50.889Z,100742.81
2023-01-13T05:01:22.633Z,100740.28
2023-01-13T05:01:54.593Z,100738.53
2023-01-13T05:02:26.329Z,100738.56
2023-01-13T05:02:58.410Z,100741.16
2023-01-13T05:03:30.053Z,100741.97
2023-01-13T05:04:01.750Z,100741.13
2023-01-13T05:04:33.445Z,100737.63
2023-01-13T05:05:05.650Z,100745.34
2023-01-13T05:05:38.282Z,100747.97
2023-01-13T05:06:10.227Z,100747.94
2023-01-13T05:06:41.892Z,100753.97
2023-01-13T05:07:15.927Z,100747.09
2023-01-13T05:07:47.602Z,100747.97
2023-01-13T05:08:19.418Z,100747.09
2023-01-13T05:08:51.152Z,100743.66
2023-01-13T05:09:22.834Z,100747.94
2023-01-13T05:09:54.493Z,100751.38
2023-01-13T05:10:27.193Z,100746.25
2023-01-13T05:11:21.990Z,100748.81
2023-01-13T05:12:12.418Z,100750.59
2023-01-13T05:13:02.945Z,100750.63
2023-01-13T05:13:53.354Z,100748.00
2023-01-13T05:14:43.698Z,100754.09
2023-01-13T05:15:45.134Z,100746.41
2023-01-13T05:16:35.146Z,100756.75
2023-01-13T05:17:10.043Z,100761.03
2023-01-13T05:17:42.724Z,100760.16
2023-01-13T05:18:15.021Z,100755.84
2023-01-13T05:18:46.758Z,100757.53
2023-01-13T05:19:18.390Z,100762.72
2023-01-13T05:19:50.421Z,100761.09
2023-01-13T05:20:22.169Z,100764.50
2023-01-13T05:20:53.864Z,100762.78
2023-01-13T05:21:43.932Z,100760.19
2023-01-13T05:22:34.177Z,100771.38
2023-01-13T05:23:24.381Z,100764.56
2023-01-13T05:24:14.913Z,100762.88
2023-01-13T05:25:05.455Z,100771.44
2023-01-13T05:25:40.488Z,100764.56
2023-01-13T05:26:12.189Z,100764.59
2023-01-13T05:26:44.769Z,100770.56
2023-01-13T05:27:16.427Z,100767.13
2023-01-13T05:27:49.619Z,100770.56
2023-01-13T05:28:21.451Z,100765.44
2023-01-13T05:28:53.115Z,100766.28
2023-01-13T05:29:24.755Z,100769.75
2023-01-13T05:29:56.447Z,100773.22
2023-01-13T05:30:32.363Z,100770.66
2023-01-13T05:31:04.088Z,100764.69
2023-01-13T05:31:35.794Z,100769.00
2023-01-13T05:32:08.393Z,100763.84
2023-01-13T05:32:40.108Z,100771.53
2023-01-13T05:33:14.868Z,100771.50
2023-01-13T05:33:46.500Z,100773.25
2023-01-13T05:34:18.326Z,100773.25
2023-01-13T05:34:50.383Z,100764.69
2023-01-13T05:35:22.795Z,100768.91
2023-01-13T05:35:54.459Z,100766.38
2023-01-13T05:36:26.112Z,100762.09
2023-01-13T05:36:57.828Z,100767.19
2023-01-13T05:37:29.888Z,100767.22
2023-01-13T05:38:01.583Z,100769.81
2023-01-13T05:38:33.286Z,100770.69
2023-01-13T05:39:05.399Z,100766.41
2023-01-13T05:39:55.482Z,100765.53
2023-01-13T05:40:45.926Z,100770.69
2023-01-13T05:41:36.155Z,100768.16
2023-01-13T05:42:27.194Z,100766.47
2023-01-13T05:43:21.913Z,100769.09
2023-01-13T05:43:53.657Z,100764.75
2023-01-13T05:44:25.295Z,100763.09
2023-01-13T05:44:56.953Z,100761.41
2023-01-13T05:45:30.613Z,100769.28
2023-01-13T05:46:08.854Z,100760.72
2023-01-13T05:46:41.957Z,100770.69
2023-01-13T05:47:13.712Z,100771.56
2023-01-13T05:47:45.350Z,100762.31
2023-01-13T05:48:19.096Z,100767.78
2023-01-13T05:48:50.790Z,100770.59
2023-01-13T05:49:22.451Z,100764.72
2023-01-13T05:49:54.101Z,100766.47
2023-01-13T05:50:25.734Z,100763.91
2023-01-13T05:50:57.810Z,100765.72
2023-01-13T05:51:29.460Z,100763.22
2023-01-13T05:52:01.087Z,100765.78
2023-01-13T05:52:32.846Z,100761.56
2023-01-13T05:53:05.171Z,100763.28
2023-01-13T05:53:37.137Z,100762.44
2023-01-13T05:54:08.825Z,100757.41
2023-01-13T05:54:41.322Z,100759.22
2023-01-13T05:55:13.255Z,100760.09
2023-01-13T05:55:45.975Z,100759.25
2023-01-13T05:56:18.066Z,100768.75
2023-01-13T05:56:49.721Z,100757.59
2023-01-13T05:57:21.385Z,100757.66
2023-01-13T05:57:53.158Z,100757.75
2023-01-13T05:58:27.017Z,100761.16
2023-01-13T05:58:58.868Z,100755.19
2023-01-13T05:59:30.589Z,100758.66
2023-01-13T06:00:02.600Z,100752.69
2023-01-13T06:00:34.231Z,100756.97
2023-01-13T06:01:09.005Z,100750.22
2023-01-13T06:01:40.706Z,100762.22
2023-01-13T06:02:12.405Z,100757.00
2023-01-13T06:02:44.113Z,100751.06
2023-01-13T06:03:16.610Z,100757.06
2023-01-13T06:03:48.239Z,100754.50
2023-01-13T06:04:20.005Z,100754.53
2023-01-13T06:04:51.722Z,100750.25
2023-01-13T06:05:23.466Z,100751.13
2023-01-13T06:06:01.484Z,100754.56
2023-01-13T06:06:33.270Z,100752.84
2023-01-13T06:07:05.311Z,100747.75
2023-01-13T06:07:36.959Z,100755.53
2023-01-13T06:08:09.037Z,100750.34
2023-01-13T06:08:40.670Z,100753.91
2023-01-13T06:09:12.369Z,100753.91
2023-01-13T06:09:44.054Z,100755.56
2023-01-13T06:10:15.892Z,100754.72
2023-01-13T06:10:47.550Z,100747.84
2023-01-13T06:11:19.282Z,100755.50
2023-01-13T06:11:50.947Z,100758.06
2023-01-13T06:12:25.530Z,100760.63
2023-01-13T06:12:57.951Z,100752.94
2023-01-13T06:13:29.673Z,100752.13
2023-01-13T06:14:01.349Z,100754.66
2023-01-13T06:14:40.166Z,100751.31
2023-01-13T06:15:11.827Z,100753.00
2023-01-13T06:15:43.601Z,100755.53
2023-01-13T06:16:15.355Z,100752.97
2023-01-13T06:16:47.032Z,100753.88
2023-01-13T06:17:18.789Z,100757.28
2023-01-13T06:17:50.682Z,100755.50
2023-01-13T06:18:22.329Z,100755.69
2023-01-13T06:18:54.593Z,100761.41
2023-01-13T06:19:26.252Z,100754.00
2023-01-13T06:19:57.911Z,100754.09
2023-01-13T06:20:29.653Z,100752.44
2023-01-13T06:21:01.371Z,100756.81
2023-01-13T06:21:33.350Z,100758.13
2023-01-13T06:22:23.933Z,100758.00
2023-01-13T06:22:55.805Z,100760.72
2023-01-13T06:23:38.834Z,100759.06
2023-01-13T06:24:10.801Z,100755.66
2023-01-13T06:24:46.294Z,100762.56
2023-01-13T06:25:51.123Z,100761.81
2023-01-13T06:26:31.165Z,100762.72
2023-01-13T06:27:07.946Z,100764.41
2023-01-13T06:27:43.685Z,100755.84
2023-01-13T06:28:15.666Z,100754.09
2023-01-13T06:28:47.674Z,100755.84
2023-01-13T06:29:20.119Z,100754.06
2023-01-13T06:29:52.306Z,100757.53
2023-01-13T06:30:24.408Z,100756.63
2023-01-13T06:31:07.527Z,100757.53
2023-01-13T06:31:41.457Z,100753.25
2023-01-13T06:32:23.167Z,100751.50
2023-01-13T06:32:59.218Z,100757.53
2023-01-13T06:33:39.201Z,100750.66
2023-01-13T06:34:16.697Z,100755.84
2023-01-13T06:35:05.707Z,100756.69
2023-01-13T06:35:43.667Z,100760.84
2023-01-13T06:36:35.407Z,100763.44
2023-01-13T06:37:19.862Z,100764.34
2023-01-13T06:37:59.668Z,100754.06
2023-01-13T06:38:36.224Z,100757.56
2023-01-13T06:39:17.737Z,100755.00
2023-01-13T06:40:03.982Z,100754.91
2023-01-13T06:40:36.541Z,100762.69
2023-01-13T06:41:09.192Z,100758.44
2023-01-13T06:41:59.836Z,100754.97
2023-01-13T06:42:56.409Z,100758.41
2023-01-13T06:43:28.608Z,100759.25
2023-01-13T06:44:00.477Z,100758.41
2023-01-13T06:44:33.916Z,100755.00
2023-01-13T06:45:06.280Z,100762.69
2023-01-13T06:45:42.045Z,100767.78
2023-01-13T06:46:15.739Z,100758.38
2023-01-13T06:47:00.089Z,100759.97
2023-01-13T06:48:36.159Z,100757.47
2023-01-13T06:49:11.948Z,100767.84
2023-01-13T06:49:44.019Z,100768.63
2023-01-13T06:50:21.207Z,100767.78
2023-01-13T06:50:53.120Z,100768.59
2023-01-13T06:51:26.677Z,100766.00
2023-01-13T06:52:00.168Z,100772.84
2023-01-13T06:52:32.053Z,100765.19
2023-01-13T06:53:04.276Z,100778.94
2023-01-13T06:53:36.033Z,100775.44
2023-01-13T06:54:08.350Z,100775.41
2023-01-13T06:54:40.157Z,100776.22
2023-01-13T06:55:12.256Z,100772.81
2023-01-13T06:55:44.614Z,100773.59
2023-01-13T06:56:24.222Z,100776.22
2023-01-13T06:56:55.977Z,100777.03
2023-01-13T06:57:27.641Z,100777.06
2023-01-13T06:57:59.410Z,100780.47
2023-01-13T06:58:31.065Z,100782.19
2023-01-13T06:59:02.750Z,100783.06
2023-01-13T06:59:35.247Z,100781.31
2023-01-13T07:00:07.629Z,100774.44
2023-01-13T07:00:39.681Z,100780.47
2023-01-13T07:01:11.421Z,100780.44